sensor_id;sensor_type;location;lat;lon;timestamp;temperature;humidity
75705;DHT22;70013;44.726;37.760;2023-07-13T00:00:20;24.15;75.21
75705;DHT22;70013;44.726;37.760;2023-07-13T00:01:23;24.16;74.96
75705;DHT22;70013;44.726;37.760;2023-07-13T00:02:25;24.17;74.83
75705;DHT22;70013;44.726;37.760;2023-07-13T00:03:28;24.15;75.22
75705;DHT22;70013;44.726;37.760;2023-07-13T00:04:31;24.15;75.60
75705;DHT22;70013;44.726;37.760;2023-07-13T00:05:32;24.10;75.95
75705;DHT22;70013;44.726;37.760;2023-07-13T00:06:34;24.11;74.97
75705;DHT22;70013;44.726;37.760;2023-07-13T00:07:36;24.13;74.53
75705;DHT22;70013;44.726;37.760;2023-07-13T00:08:38;24.14;75.62
75705;DHT22;70013;44.726;37.760;2023-07-13T00:09:41;24.12;75.46
75705;DHT22;70013;44.726;37.760;2023-07-13T00:10:42;24.12;74.66
75705;DHT22;70013;44.726;37.760;2023-07-13T00:11:49;24.11;75.28
75705;DHT22;70013;44.726;37.760;2023-07-13T00:12:51;24.08;74.46
75705;DHT22;70013;44.726;37.760;2023-07-13T00:13:56;24.10;74.28
75705;DHT22;70013;44.726;37.760;2023-07-13T00:14:59;24.10;74.94
75705;DHT22;70013;44.726;37.760;2023-07-13T00:16:01;24.05;75.16
75705;DHT22;70013;44.726;37.760;2023-07-13T00:17:03;24.04;75.19
75705;DHT22;70013;44.726;37.760;2023-07-13T00:18:04;24.03;75.18
75705;DHT22;70013;44.726;37.760;2023-07-13T00:19:06;24.04;75.25
75705;DHT22;70013;44.726;37.760;2023-07-13T00:20:08;24.04;75.60
75705;DHT22;70013;44.726;37.760;2023-07-13T00:21:10;24.03;75.38
75705;DHT22;70013;44.726;37.760;2023-07-13T00:22:12;24.04;75.83
75705;DHT22;70013;44.726;37.760;2023-07-13T00:23:14;24.05;75.06
75705;DHT22;70013;44.726;37.760;2023-07-13T00:24:17;24.08;74.07
75705;DHT22;70013;44.726;37.760;2023-07-13T00:25:24;24.12;73.52
75705;DHT22;70013;44.726;37.760;2023-07-13T00:26:29;24.16;73.94
75705;DHT22;70013;44.726;37.760;2023-07-13T00:27:31;24.11;75.57
75705;DHT22;70013;44.726;37.760;2023-07-13T00:28:33;24.15;75.10
75705;DHT22;70013;44.726;37.760;2023-07-13T00:29:36;24.15;74.73
75705;DHT22;70013;44.726;37.760;2023-07-13T00:30:39;24.17;73.90
75705;DHT22;70013;44.726;37.760;2023-07-13T00:31:40;24.20;73.86
75705;DHT22;70013;44.726;37.760;2023-07-13T00:32:42;24.20;74.35
75705;DHT22;70013;44.726;37.760;2023-07-13T00:33:44;24.23;73.35
75705;DHT22;70013;44.726;37.760;2023-07-13T00:34:46;24.15;75.54
75705;DHT22;70013;44.726;37.760;2023-07-13T00:35:48;24.16;75.38
75705;DHT22;70013;44.726;37.760;2023-07-13T00:36:50;24.14;75.15
75705;DHT22;70013;44.726;37.760;2023-07-13T00:37:52;24.14;75.78
75705;DHT22;70013;44.726;37.760;2023-07-13T00:38:54;24.10;74.39
75705;DHT22;70013;44.726;37.760;2023-07-13T00:39:55;24.06;76.37
75705;DHT22;70013;44.726;37.760;2023-07-13T00:40:58;24.02;75.61
75705;DHT22;70013;44.726;37.760;2023-07-13T00:42:00;24.05;75.69
75705;DHT22;70013;44.726;37.760;2023-07-13T00:43:04;24.05;75.31
75705;DHT22;70013;44.726;37.760;2023-07-13T00:44:13;24.06;75.05
75705;DHT22;70013;44.726;37.760;2023-07-13T00:46:23;24.02;75.58
75705;DHT22;70013;44.726;37.760;2023-07-13T00:47:25;24.00;75.81
75705;DHT22;70013;44.726;37.760;2023-07-13T00:48:31;23.99;74.28
75705;DHT22;70013;44.726;37.760;2023-07-13T00:49:35;23.99;76.53
75705;DHT22;70013;44.726;37.760;2023-07-13T00:50:37;23.96;76.44
75705;DHT22;70013;44.726;37.760;2023-07-13T00:51:44;23.94;76.25
75705;DHT22;70013;44.726;37.760;2023-07-13T00:52:50;23.90;75.87
75705;DHT22;70013;44.726;37.760;2023-07-13T00:53:57;23.88;75.32
75705;DHT22;70013;44.726;37.760;2023-07-13T00:54:59;23.87;76.96
75705;DHT22;70013;44.726;37.760;2023-07-13T00:56:02;23.77;77.17
75705;DHT22;70013;44.726;37.760;2023-07-13T00:57:07;23.80;76.15
75705;DHT22;70013;44.726;37.760;2023-07-13T00:58:10;23.81;76.69
75705;DHT22;70013;44.726;37.760;2023-07-13T00:59:13;23.81;76.96
75705;DHT22;70013;44.726;37.760;2023-07-13T01:00:16;23.73;77.17
75705;DHT22;70013;44.726;37.760;2023-07-13T01:01:18;23.73;77.75
75705;DHT22;70013;44.726;37.760;2023-07-13T01:02:20;23.73;76.72
75705;DHT22;70013;44.726;37.760;2023-07-13T01:03:23;23.72;77.40
75705;DHT22;70013;44.726;37.760;2023-07-13T01:04:26;23.67;78.47
75705;DHT22;70013;44.726;37.760;2023-07-13T01:05:28;23.69;76.92
75705;DHT22;70013;44.726;37.760;2023-07-13T01:06:30;23.71;76.12
75705;DHT22;70013;44.726;37.760;2023-07-13T01:07:33;23.72;76.71
75705;DHT22;70013;44.726;37.760;2023-07-13T01:08:35;23.69;78.47
75705;DHT22;70013;44.726;37.760;2023-07-13T01:09:36;23.64;79.01
75705;DHT22;70013;44.726;37.760;2023-07-13T01:10:38;23.59;78.72
75705;DHT22;70013;44.726;37.760;2023-07-13T01:11:40;23.55;78.83
75705;DHT22;70013;44.726;37.760;2023-07-13T01:12:42;23.50;79.10
75705;DHT22;70013;44.726;37.760;2023-07-13T01:13:44;23.46;79.20
75705;DHT22;70013;44.726;37.760;2023-07-13T01:14:46;23.46;77.50
75705;DHT22;70013;44.726;37.760;2023-07-13T01:15:50;23.49;77.29
75705;DHT22;70013;44.726;37.760;2023-07-13T01:16:53;23.51;76.84
75705;DHT22;70013;44.726;37.760;2023-07-13T01:17:56;23.53;77.99
75705;DHT22;70013;44.726;37.760;2023-07-13T01:18:58;23.54;78.29
75705;DHT22;70013;44.726;37.760;2023-07-13T01:20:00;23.55;76.91
75705;DHT22;70013;44.726;37.760;2023-07-13T01:21:04;23.58;77.91
75705;DHT22;70013;44.726;37.760;2023-07-13T01:22:13;23.58;76.15
75705;DHT22;70013;44.726;37.760;2023-07-13T01:23:15;23.59;77.74
75705;DHT22;70013;44.726;37.760;2023-07-13T01:24:16;23.58;77.96
75705;DHT22;70013;44.726;37.760;2023-07-13T01:25:19;23.52;78.01
75705;DHT22;70013;44.726;37.760;2023-07-13T01:26:21;23.52;77.82
75705;DHT22;70013;44.726;37.760;2023-07-13T01:27:25;23.55;76.26
75705;DHT22;70013;44.726;37.760;2023-07-13T01:28:28;23.56;76.73
75705;DHT22;70013;44.726;37.760;2023-07-13T01:29:31;23.57;77.09
75705;DHT22;70013;44.726;37.760;2023-07-13T01:30:35;23.56;76.96
75705;DHT22;70013;44.726;37.760;2023-07-13T01:31:37;23.53;77.42
75705;DHT22;70013;44.726;37.760;2023-07-13T01:32:39;23.51;76.92
75705;DHT22;70013;44.726;37.760;2023-07-13T01:33:43;23.52;76.81
75705;DHT22;70013;44.726;37.760;2023-07-13T01:34:44;23.50;77.13
75705;DHT22;70013;44.726;37.760;2023-07-13T01:35:48;23.49;76.78
75705;DHT22;70013;44.726;37.760;2023-07-13T01:36:51;23.47;77.39
75705;DHT22;70013;44.726;37.760;2023-07-13T01:37:55;23.49;77.64
75705;DHT22;70013;44.726;37.760;2023-07-13T01:38:58;23.45;77.13
75705;DHT22;70013;44.726;37.760;2023-07-13T01:40:00;23.44;77.46
75705;DHT22;70013;44.726;37.760;2023-07-13T01:41:02;23.45;77.86
75705;DHT22;70013;44.726;37.760;2023-07-13T01:42:05;23.47;77.43
75705;DHT22;70013;44.726;37.760;2023-07-13T01:43:12;23.49;77.49
75705;DHT22;70013;44.726;37.760;2023-07-13T01:44:14;23.50;77.22
75705;DHT22;70013;44.726;37.760;2023-07-13T01:45:15;23.51;77.46
75705;DHT22;70013;44.726;37.760;2023-07-13T01:46:17;23.52;76.38
75705;DHT22;70013;44.726;37.760;2023-07-13T01:47:19;23.53;77.06
75705;DHT22;70013;44.726;37.760;2023-07-13T01:48:20;23.55;76.24
75705;DHT22;70013;44.726;37.760;2023-07-13T01:49:23;23.55;76.61
75705;DHT22;70013;44.726;37.760;2023-07-13T01:50:26;23.57;76.52
75705;DHT22;70013;44.726;37.760;2023-07-13T01:51:28;23.58;76.02
75705;DHT22;70013;44.726;37.760;2023-07-13T01:52:29;23.59;75.71
75705;DHT22;70013;44.726;37.760;2023-07-13T01:53:33;23.59;76.58
75705;DHT22;70013;44.726;37.760;2023-07-13T01:54:36;23.58;76.30
75705;DHT22;70013;44.726;37.760;2023-07-13T01:55:38;23.58;76.02
75705;DHT22;70013;44.726;37.760;2023-07-13T01:56:40;23.57;76.54
75705;DHT22;70013;44.726;37.760;2023-07-13T01:57:43;23.58;75.84
75705;DHT22;70013;44.726;37.760;2023-07-13T01:58:45;23.47;77.36
75705;DHT22;70013;44.726;37.760;2023-07-13T01:59:47;23.49;76.86
75705;DHT22;70013;44.726;37.760;2023-07-13T02:00:49;23.51;76.57
75705;DHT22;70013;44.726;37.760;2023-07-13T02:01:51;23.51;76.07
75705;DHT22;70013;44.726;37.760;2023-07-13T02:02:52;23.54;76.46
75705;DHT22;70013;44.726;37.760;2023-07-13T02:03:54;23.55;76.24
75705;DHT22;70013;44.726;37.760;2023-07-13T02:04:56;23.56;76.12
75705;DHT22;70013;44.726;37.760;2023-07-13T02:05:57;23.57;76.74
75705;DHT22;70013;44.726;37.760;2023-07-13T02:07:00;23.46;77.60
75705;DHT22;70013;44.726;37.760;2023-07-13T02:08:02;23.42;77.79
75705;DHT22;70013;44.726;37.760;2023-07-13T02:09:06;23.40;77.53
75705;DHT22;70013;44.726;37.760;2023-07-13T02:10:09;23.43;76.56
75705;DHT22;70013;44.726;37.760;2023-07-13T02:11:12;23.46;76.33
75705;DHT22;70013;44.726;37.760;2023-07-13T02:12:13;23.49;76.00
75705;DHT22;70013;44.726;37.760;2023-07-13T02:13:15;23.53;75.62
75705;DHT22;70013;44.726;37.760;2023-07-13T02:14:17;23.55;76.00
75705;DHT22;70013;44.726;37.760;2023-07-13T02:15:19;23.56;75.95
75705;DHT22;70013;44.726;37.760;2023-07-13T02:16:20;23.59;75.30
75705;DHT22;70013;44.726;37.760;2023-07-13T02:17:22;23.62;75.82
75705;DHT22;70013;44.726;37.760;2023-07-13T02:18:24;23.65;75.92
75705;DHT22;70013;44.726;37.760;2023-07-13T02:19:26;23.66;76.20
75705;DHT22;70013;44.726;37.760;2023-07-13T02:20:28;23.69;74.81
75705;DHT22;70013;44.726;37.760;2023-07-13T02:21:29;23.69;75.63
75705;DHT22;70013;44.726;37.760;2023-07-13T02:22:31;23.70;75.41
75705;DHT22;70013;44.726;37.760;2023-07-13T02:23:33;23.70;75.10
75705;DHT22;70013;44.726;37.760;2023-07-13T02:24:34;23.69;75.59
75705;DHT22;70013;44.726;37.760;2023-07-13T02:25:36;23.69;76.62
75705;DHT22;70013;44.726;37.760;2023-07-13T02:26:38;23.65;77.18
75705;DHT22;70013;44.726;37.760;2023-07-13T02:27:40;23.57;76.87
75705;DHT22;70013;44.726;37.760;2023-07-13T02:28:41;23.55;77.27
75705;DHT22;70013;44.726;37.760;2023-07-13T02:29:43;23.56;77.39
75705;DHT22;70013;44.726;37.760;2023-07-13T02:30:45;23.52;77.62
75705;DHT22;70013;44.726;37.760;2023-07-13T02:31:46;23.49;77.70
75705;DHT22;70013;44.726;37.760;2023-07-13T02:32:48;23.42;78.09
75705;DHT22;70013;44.726;37.760;2023-07-13T02:33:50;23.37;78.54
75705;DHT22;70013;44.726;37.760;2023-07-13T02:34:52;23.34;78.75
75705;DHT22;70013;44.726;37.760;2023-07-13T02:35:54;23.35;79.00
75705;DHT22;70013;44.726;37.760;2023-07-13T02:36:56;23.34;77.76
75705;DHT22;70013;44.726;37.760;2023-07-13T02:37:58;23.37;78.86
75705;DHT22;70013;44.726;37.760;2023-07-13T02:39:05;23.36;78.72
75705;DHT22;70013;44.726;37.760;2023-07-13T02:40:10;23.31;78.95
75705;DHT22;70013;44.726;37.760;2023-07-13T02:41:12;23.28;78.95
75705;DHT22;70013;44.726;37.760;2023-07-13T02:42:15;23.31;77.75
75705;DHT22;70013;44.726;37.760;2023-07-13T02:43:19;23.27;79.05
75705;DHT22;70013;44.726;37.760;2023-07-13T02:44:23;23.24;79.19
75705;DHT22;70013;44.726;37.760;2023-07-13T02:45:25;23.21;79.31
75705;DHT22;70013;44.726;37.760;2023-07-13T02:46:26;23.21;79.35
75705;DHT22;70013;44.726;37.760;2023-07-13T02:47:32;23.17;79.41
75705;DHT22;70013;44.726;37.760;2023-07-13T02:48:34;23.15;79.52
75705;DHT22;70013;44.726;37.760;2023-07-13T02:49:36;23.13;79.60
75705;DHT22;70013;44.726;37.760;2023-07-13T02:50:37;23.16;79.17
75705;DHT22;70013;44.726;37.760;2023-07-13T02:51:39;23.16;78.79
75705;DHT22;70013;44.726;37.760;2023-07-13T02:52:41;23.17;79.10
75705;DHT22;70013;44.726;37.760;2023-07-13T02:53:42;23.18;78.97
75705;DHT22;70013;44.726;37.760;2023-07-13T02:54:44;23.12;79.00
75705;DHT22;70013;44.726;37.760;2023-07-13T02:55:46;23.09;79.24
75705;DHT22;70013;44.726;37.760;2023-07-13T02:56:49;23.03;79.35
75705;DHT22;70013;44.726;37.760;2023-07-13T02:57:51;23.03;79.23
75705;DHT22;70013;44.726;37.760;2023-07-13T02:58:53;23.01;79.02
75705;DHT22;70013;44.726;37.760;2023-07-13T02:59:56;23.02;78.96
75705;DHT22;70013;44.726;37.760;2023-07-13T03:00:58;23.01;79.14
75705;DHT22;70013;44.726;37.760;2023-07-13T03:02:02;23.01;79.00
75705;DHT22;70013;44.726;37.760;2023-07-13T03:03:04;23.06;78.83
75705;DHT22;70013;44.726;37.760;2023-07-13T03:04:06;23.02;78.92
75705;DHT22;70013;44.726;37.760;2023-07-13T03:05:09;23.09;78.50
75705;DHT22;70013;44.726;37.760;2023-07-13T03:06:15;23.17;78.21
75705;DHT22;70013;44.726;37.760;2023-07-13T03:07:22;23.30;77.89
75705;DHT22;70013;44.726;37.760;2023-07-13T03:08:26;23.44;77.21
75705;DHT22;70013;44.726;37.760;2023-07-13T03:09:29;23.52;76.47
75705;DHT22;70013;44.726;37.760;2023-07-13T03:10:31;23.53;76.56
75705;DHT22;70013;44.726;37.760;2023-07-13T03:11:33;23.58;76.57
75705;DHT22;70013;44.726;37.760;2023-07-13T03:12:55;23.62;76.47
75705;DHT22;70013;44.726;37.760;2023-07-13T03:14:00;23.66;76.13
75705;DHT22;70013;44.726;37.760;2023-07-13T03:15:05;23.67;75.99
75705;DHT22;70013;44.726;37.760;2023-07-13T03:16:09;23.68;75.93
75705;DHT22;70013;44.726;37.760;2023-07-13T03:17:11;23.73;76.17
75705;DHT22;70013;44.726;37.760;2023-07-13T03:18:15;24.11;75.10
75705;DHT22;70013;44.726;37.760;2023-07-13T03:19:17;24.42;73.44
75705;DHT22;70013;44.726;37.760;2023-07-13T03:20:23;24.45;73.15
75705;DHT22;70013;44.726;37.760;2023-07-13T03:21:25;24.42;73.08
75705;DHT22;70013;44.726;37.760;2023-07-13T03:22:28;24.41;73.09
75705;DHT22;70013;44.726;37.760;2023-07-13T03:23:29;24.36;72.97
75705;DHT22;70013;44.726;37.760;2023-07-13T03:24:33;24.32;72.88
75705;DHT22;70013;44.726;37.760;2023-07-13T03:25:35;24.30;73.41
75705;DHT22;70013;44.726;37.760;2023-07-13T03:26:38;24.25;73.61
75705;DHT22;70013;44.726;37.760;2023-07-13T03:27:40;24.19;73.59
75705;DHT22;70013;44.726;37.760;2023-07-13T03:28:44;24.17;73.87
75705;DHT22;70013;44.726;37.760;2023-07-13T03:29:50;24.11;74.19
75705;DHT22;70013;44.726;37.760;2023-07-13T03:31:04;24.08;74.02
75705;DHT22;70013;44.726;37.760;2023-07-13T03:32:08;24.06;74.18
75705;DHT22;70013;44.726;37.760;2023-07-13T03:33:09;24.02;74.78
75705;DHT22;70013;44.726;37.760;2023-07-13T03:34:11;23.99;74.46
75705;DHT22;70013;44.726;37.760;2023-07-13T03:35:13;24.00;74.84
75705;DHT22;70013;44.726;37.760;2023-07-13T03:36:21;23.96;74.94
75705;DHT22;70013;44.726;37.760;2023-07-13T03:37:25;23.95;74.67
75705;DHT22;70013;44.726;37.760;2023-07-13T03:38:26;23.96;74.91
75705;DHT22;70013;44.726;37.760;2023-07-13T03:39:28;23.96;74.79
75705;DHT22;70013;44.726;37.760;2023-07-13T03:40:32;23.98;74.80
75705;DHT22;70013;44.726;37.760;2023-07-13T03:41:35;23.97;74.60
75705;DHT22;70013;44.726;37.760;2023-07-13T03:42:36;24.33;74.46
75705;DHT22;70013;44.726;37.760;2023-07-13T03:43:38;24.76;71.76
75705;DHT22;70013;44.726;37.760;2023-07-13T03:44:42;25.38;70.21
75705;DHT22;70013;44.726;37.760;2023-07-13T03:45:47;26.42;66.57
75705;DHT22;70013;44.726;37.760;2023-07-13T03:46:49;27.29;62.36
75705;DHT22;70013;44.726;37.760;2023-07-13T03:47:50;28.23;60.80
75705;DHT22;70013;44.726;37.760;2023-07-13T03:48:53;29.08;57.01
75705;DHT22;70013;44.726;37.760;2023-07-13T03:49:55;29.86;53.56
75705;DHT22;70013;44.726;37.760;2023-07-13T03:50:56;29.88;53.97
75705;DHT22;70013;44.726;37.760;2023-07-13T03:51:59;29.50;53.53
75705;DHT22;70013;44.726;37.760;2023-07-13T03:53:01;29.28;55.13
75705;DHT22;70013;44.726;37.760;2023-07-13T03:54:03;30.04;52.85
75705;DHT22;70013;44.726;37.760;2023-07-13T03:55:05;30.76;50.56
75705;DHT22;70013;44.726;37.760;2023-07-13T03:56:08;31.39;48.57
75705;DHT22;70013;44.726;37.760;2023-07-13T03:57:10;32.08;46.70
75705;DHT22;70013;44.726;37.760;2023-07-13T03:58:36;32.93;44.37
75705;DHT22;70013;44.726;37.760;2023-07-13T03:59:44;33.57;42.81
75705;DHT22;70013;44.726;37.760;2023-07-13T04:00:46;34.08;42.40
75705;DHT22;70013;44.726;37.760;2023-07-13T04:01:49;34.67;40.55
75705;DHT22;70013;44.726;37.760;2023-07-13T04:02:51;35.12;38.81
75705;DHT22;70013;44.726;37.760;2023-07-13T04:03:53;35.59;38.10
75705;DHT22;70013;44.726;37.760;2023-07-13T04:04:57;35.84;36.76
75705;DHT22;70013;44.726;37.760;2023-07-13T04:06:04;35.08;39.28
75705;DHT22;70013;44.726;37.760;2023-07-13T04:07:06;34.32;40.10
75705;DHT22;70013;44.726;37.760;2023-07-13T04:08:09;33.42;42.64
75705;DHT22;70013;44.726;37.760;2023-07-13T04:09:12;32.26;45.08
75705;DHT22;70013;44.726;37.760;2023-07-13T04:10:13;31.93;46.52
75705;DHT22;70013;44.726;37.760;2023-07-13T04:11:16;31.78;46.94
75705;DHT22;70013;44.726;37.760;2023-07-13T04:12:18;31.00;49.10
75705;DHT22;70013;44.726;37.760;2023-07-13T04:13:20;31.09;49.56
75705;DHT22;70013;44.726;37.760;2023-07-13T04:14:23;31.52;47.97
75705;DHT22;70013;44.726;37.760;2023-07-13T04:15:25;31.95;46.71
75705;DHT22;70013;44.726;37.760;2023-07-13T04:16:26;32.68;44.34
75705;DHT22;70013;44.726;37.760;2023-07-13T04:17:28;32.75;44.66
75705;DHT22;70013;44.726;37.760;2023-07-13T04:18:30;33.19;44.23
75705;DHT22;70013;44.726;37.760;2023-07-13T04:19:31;33.40;43.81
75705;DHT22;70013;44.726;37.760;2023-07-13T04:20:34;34.33;40.86
75705;DHT22;70013;44.726;37.760;2023-07-13T04:21:36;34.12;41.14
75705;DHT22;70013;44.726;37.760;2023-07-13T04:22:38;33.43;41.53
75705;DHT22;70013;44.726;37.760;2023-07-13T04:23:40;34.01;41.74
75705;DHT22;70013;44.726;37.760;2023-07-13T04:24:41;33.79;41.68
75705;DHT22;70013;44.726;37.760;2023-07-13T04:25:44;32.90;42.58
75705;DHT22;70013;44.726;37.760;2023-07-13T04:26:46;31.80;46.86
75705;DHT22;70013;44.726;37.760;2023-07-13T04:27:49;31.48;46.28
75705;DHT22;70013;44.726;37.760;2023-07-13T04:28:51;31.09;48.44
75705;DHT22;70013;44.726;37.760;2023-07-13T04:29:54;30.99;48.60
75705;DHT22;70013;44.726;37.760;2023-07-13T04:30:56;30.83;48.89
75705;DHT22;70013;44.726;37.760;2023-07-13T04:31:57;30.56;49.47
75705;DHT22;70013;44.726;37.760;2023-07-13T04:32:59;30.31;50.93
75705;DHT22;70013;44.726;37.760;2023-07-13T04:34:01;30.26;51.15
75705;DHT22;70013;44.726;37.760;2023-07-13T04:35:04;30.07;51.45
75705;DHT22;70013;44.726;37.760;2023-07-13T04:36:06;29.93;51.30
75705;DHT22;70013;44.726;37.760;2023-07-13T04:37:10;29.80;51.34
75705;DHT22;70013;44.726;37.760;2023-07-13T04:38:12;29.76;52.76
75705;DHT22;70013;44.726;37.760;2023-07-13T04:39:14;29.67;52.58
75705;DHT22;70013;44.726;37.760;2023-07-13T04:40:17;29.63;52.95
75705;DHT22;70013;44.726;37.760;2023-07-13T04:41:20;29.64;52.46
75705;DHT22;70013;44.726;37.760;2023-07-13T04:42:22;29.65;52.11
75705;DHT22;70013;44.726;37.760;2023-07-13T04:43:24;29.66;52.11
75705;DHT22;70013;44.726;37.760;2023-07-13T04:44:26;29.66;52.35
75705;DHT22;70013;44.726;37.760;2023-07-13T04:45:27;29.67;52.15
75705;DHT22;70013;44.726;37.760;2023-07-13T04:46:29;29.68;51.97
75705;DHT22;70013;44.726;37.760;2023-07-13T04:47:31;29.68;52.06
75705;DHT22;70013;44.726;37.760;2023-07-13T04:48:33;29.67;51.98
75705;DHT22;70013;44.726;37.760;2023-07-13T04:49:35;29.71;51.73
75705;DHT22;70013;44.726;37.760;2023-07-13T04:50:37;29.73;51.33
75705;DHT22;70013;44.726;37.760;2023-07-13T04:51:39;29.73;51.38
75705;DHT22;70013;44.726;37.760;2023-07-13T04:52:41;29.75;51.30
75705;DHT22;70013;44.726;37.760;2023-07-13T04:53:43;29.80;51.13
75705;DHT22;70013;44.726;37.760;2023-07-13T04:54:45;29.90;50.88
75705;DHT22;70013;44.726;37.760;2023-07-13T04:55:46;30.97;48.40
75705;DHT22;70013;44.726;37.760;2023-07-13T04:56:48;31.06;47.69
75705;DHT22;70013;44.726;37.760;2023-07-13T04:57:51;30.98;47.93
75705;DHT22;70013;44.726;37.760;2023-07-13T04:58:52;30.86;48.28
75705;DHT22;70013;44.726;37.760;2023-07-13T04:59:54;30.78;48.48
75705;DHT22;70013;44.726;37.760;2023-07-13T05:01:04;30.66;48.90
75705;DHT22;70013;44.726;37.760;2023-07-13T05:02:06;30.57;49.19
75705;DHT22;70013;44.726;37.760;2023-07-13T05:03:08;30.49;49.44
75705;DHT22;70013;44.726;37.760;2023-07-13T05:04:10;30.39;49.60
75705;DHT22;70013;44.726;37.760;2023-07-13T05:05:12;30.33;49.66
75705;DHT22;70013;44.726;37.760;2023-07-13T05:06:14;30.32;49.73
75705;DHT22;70013;44.726;37.760;2023-07-13T05:07:16;31.27;47.34
75705;DHT22;70013;44.726;37.760;2023-07-13T05:08:18;32.16;44.77
75705;DHT22;70013;44.726;37.760;2023-07-13T05:09:19;32.64;43.42
75705;DHT22;70013;44.726;37.760;2023-07-13T05:10:22;32.40;43.67
75705;DHT22;70013;44.726;37.760;2023-07-13T05:11:24;32.20;44.14
75705;DHT22;70013;44.726;37.760;2023-07-13T05:12:26;32.01;44.54
75705;DHT22;70013;44.726;37.760;2023-07-13T05:13:28;31.81;45.09
75705;DHT22;70013;44.726;37.760;2023-07-13T05:14:30;31.68;45.54
75705;DHT22;70013;44.726;37.760;2023-07-13T05:15:33;31.50;45.96
75705;DHT22;70013;44.726;37.760;2023-07-13T05:16:35;31.35;46.15
75705;DHT22;70013;44.726;37.760;2023-07-13T05:17:37;31.22;46.64
75705;DHT22;70013;44.726;37.760;2023-07-13T05:18:40;31.11;47.04
75705;DHT22;70013;44.726;37.760;2023-07-13T05:19:42;31.01;47.47
75705;DHT22;70013;44.726;37.760;2023-07-13T05:20:43;30.92;47.83
75705;DHT22;70013;44.726;37.760;2023-07-13T05:21:45;30.84;48.03
75705;DHT22;70013;44.726;37.760;2023-07-13T05:22:46;30.75;48.36
75705;DHT22;70013;44.726;37.760;2023-07-13T05:23:48;30.69;48.54
75705;DHT22;70013;44.726;37.760;2023-07-13T05:24:50;30.64;48.71
75705;DHT22;70013;44.726;37.760;2023-07-13T05:25:52;30.60;48.79
75705;DHT22;70013;44.726;37.760;2023-07-13T05:26:53;30.55;48.89
75705;DHT22;70013;44.726;37.760;2023-07-13T05:27:55;30.55;48.69
75705;DHT22;70013;44.726;37.760;2023-07-13T05:28:56;30.54;48.57
75705;DHT22;70013;44.726;37.760;2023-07-13T05:29:58;30.53;48.62
75705;DHT22;70013;44.726;37.760;2023-07-13T05:31:00;30.51;48.43
75705;DHT22;70013;44.726;37.760;2023-07-13T05:32:02;30.51;48.24
75705;DHT22;70013;44.726;37.760;2023-07-13T05:33:04;30.53;48.32
75705;DHT22;70013;44.726;37.760;2023-07-13T05:34:06;31.55;46.36
75705;DHT22;70013;44.726;37.760;2023-07-13T05:35:08;32.30;43.51
75705;DHT22;70013;44.726;37.760;2023-07-13T05:36:10;32.13;44.27
75705;DHT22;70013;44.726;37.760;2023-07-13T05:37:11;32.03;44.01
75705;DHT22;70013;44.726;37.760;2023-07-13T05:38:13;31.98;43.84
75705;DHT22;70013;44.726;37.760;2023-07-13T05:39:15;31.94;43.70
75705;DHT22;70013;44.726;37.760;2023-07-13T05:40:17;31.93;43.55
75705;DHT22;70013;44.726;37.760;2023-07-13T05:41:19;31.95;43.43
75705;DHT22;70013;44.726;37.760;2023-07-13T05:42:20;33.01;41.18
75705;DHT22;70013;44.726;37.760;2023-07-13T05:43:22;33.16;41.10
75705;DHT22;70013;44.726;37.760;2023-07-13T05:44:24;33.16;40.71
75705;DHT22;70013;44.726;37.760;2023-07-13T05:45:26;33.27;40.59
75705;DHT22;70013;44.726;37.760;2023-07-13T05:46:28;34.77;37.33
75705;DHT22;70013;44.726;37.760;2023-07-13T05:47:30;34.86;37.77
75705;DHT22;70013;44.726;37.760;2023-07-13T05:48:31;34.62;38.75
75705;DHT22;70013;44.726;37.760;2023-07-13T05:49:33;34.34;39.50
75705;DHT22;70013;44.726;37.760;2023-07-13T05:50:35;34.15;40.24
75705;DHT22;70013;44.726;37.760;2023-07-13T05:51:37;33.99;40.42
75705;DHT22;70013;44.726;37.760;2023-07-13T05:52:38;33.87;40.67
75705;DHT22;70013;44.726;37.760;2023-07-13T05:53:40;33.82;40.85
75705;DHT22;70013;44.726;37.760;2023-07-13T05:54:42;33.89;41.14
75705;DHT22;70013;44.726;37.760;2023-07-13T05:55:47;35.03;38.68
75705;DHT22;70013;44.726;37.760;2023-07-13T05:56:51;35.81;36.66
75705;DHT22;70013;44.726;37.760;2023-07-13T05:57:52;35.40;37.08
75705;DHT22;70013;44.726;37.760;2023-07-13T05:58:54;35.13;37.76
75705;DHT22;70013;44.726;37.760;2023-07-13T05:59:56;34.81;38.65
75705;DHT22;70013;44.726;37.760;2023-07-13T06:01:09;34.51;39.89
75705;DHT22;70013;44.726;37.760;2023-07-13T06:02:11;34.22;39.88
75705;DHT22;70013;44.726;37.760;2023-07-13T06:03:13;33.99;40.36
75705;DHT22;70013;44.726;37.760;2023-07-13T06:04:15;33.78;40.67
75705;DHT22;70013;44.726;37.760;2023-07-13T06:05:17;33.57;41.20
75705;DHT22;70013;44.726;37.760;2023-07-13T06:06:19;33.42;41.56
75705;DHT22;70013;44.726;37.760;2023-07-13T06:07:21;33.28;42.14
75705;DHT22;70013;44.726;37.760;2023-07-13T06:08:22;33.14;42.47
75705;DHT22;70013;44.726;37.760;2023-07-13T06:09:24;33.04;42.87
75705;DHT22;70013;44.726;37.760;2023-07-13T06:10:26;32.93;43.23
75705;DHT22;70013;44.726;37.760;2023-07-13T06:11:28;32.82;43.54
75705;DHT22;70013;44.726;37.760;2023-07-13T06:12:31;32.73;43.66
75705;DHT22;70013;44.726;37.760;2023-07-13T06:13:33;32.64;43.38
75705;DHT22;70013;44.726;37.760;2023-07-13T06:14:35;32.58;43.58
75705;DHT22;70013;44.726;37.760;2023-07-13T06:15:36;32.56;43.27
75705;DHT22;70013;44.726;37.760;2023-07-13T06:16:39;32.55;43.45
75705;DHT22;70013;44.726;37.760;2023-07-13T06:17:42;32.59;43.11
75705;DHT22;70013;44.726;37.760;2023-07-13T06:18:44;32.56;42.68
75705;DHT22;70013;44.726;37.760;2023-07-13T06:19:45;32.50;42.73
75705;DHT22;70013;44.726;37.760;2023-07-13T06:20:47;32.49;42.93
75705;DHT22;70013;44.726;37.760;2023-07-13T06:21:49;32.44;43.43
75705;DHT22;70013;44.726;37.760;2023-07-13T06:22:51;32.40;44.02
75705;DHT22;70013;44.726;37.760;2023-07-13T06:23:53;32.39;44.02
75705;DHT22;70013;44.726;37.760;2023-07-13T06:24:54;32.34;44.24
75705;DHT22;70013;44.726;37.760;2023-07-13T06:25:56;32.29;43.98
75705;DHT22;70013;44.726;37.760;2023-07-13T06:26:57;32.25;44.16
75705;DHT22;70013;44.726;37.760;2023-07-13T06:28:00;32.20;44.04
75705;DHT22;70013;44.726;37.760;2023-07-13T06:29:02;32.15;44.85
75705;DHT22;70013;44.726;37.760;2023-07-13T06:30:04;32.11;45.61